Time;durP1;ratioP1;P1;durP2;ratioP2;P2;SDS_P1;SDS_P2;PMS_P1;PMS_P2;Temp;Humidity;BMP_temperature;BMP_pressure;BME280_temperature;BME280_humidity;BME280_pressure;Samples;Min_cycle;Max_cycle;Signal;HPM_P1;HPM_P2
2021/12/17 00:02:14;;;;;;;0.10;0.00;;;;;;;;;;4180840;28;20099;-34
2021/12/17 00:04:03;;;;;;;0.20;0.10;;;;;;;;;;4180784;28;20107;-34
2021/12/17 00:08:10;;;;;;;0.20;0.10;;;;;;;;;;4179476;28;20103;-34
2021/12/17 00:10:16;;;;;;;0.13;0.10;;;;;;;;;;4180905;28;20094;-34
2021/12/17 00:12:19;;;;;;;0.10;0.10;;;;;;;;;;4180552;28;20406;-35
2021/12/17 00:14:27;;;;;;;0.05;0.03;;;;;;;;;;4180749;28;20056;-34
2021/12/17 00:16:33;;;;;;;0.68;0.20;;;;;;;;;;4180570;28;20452;-34
2021/12/17 00:18:49;;;;;;;0.30;0.20;;;;;;;;;;4180480;28;20056;-35
2021/12/17 00:40:16;;;;;;;0.10;0.10;;;;;;;;;;4180700;28;20052;-33
2021/12/17 00:48:51;;;;;;;0.85;0.10;;;;;;;;;;4182218;28;20410;-35
2021/12/17 00:51:22;;;;;;;0.55;0.20;;;;;;;;;;4183704;28;20049;-35
2021/12/17 00:53:18;;;;;;;0.15;0.10;;;;;;;;;;4183073;28;20098;-35
2021/12/17 00:55:19;;;;;;;0.10;0.10;;;;;;;;;;4183655;28;20052;-35
2021/12/17 00:57:29;;;;;;;0.20;0.17;;;;;;;;;;4181945;28;20164;-35
2021/12/17 00:59:30;;;;;;;;;;;;;;;;;;4183783;28;20546;-35
2021/12/17 01:01:31;;;;;;;0.32;0.20;;;;;;;;;;4183239;28;19917;-34
2021/12/17 01:03:32;;;;;;;0.35;0.15;;;;;;;;;;4182051;28;20049;-35
2021/12/17 01:05:33;;;;;;;0.25;0.10;;;;;;;;;;4182335;28;20045;-35
2021/12/17 01:07:35;;;;;;;0.30;0.10;;;;;;;;;;4190976;28;20117;-35
2021/12/17 01:09:39;;;;;;;0.73;0.30;;;;;;;;;;4198459;28;20082;-34
2021/12/17 01:11:42;;;;;;;0.20;0.10;;;;;;;;;;4198321;28;20052;-34
2021/12/17 01:14:12;;;;;;;0.20;0.10;;;;;;;;;;4186480;28;20052;-35
2021/12/17 01:16:51;;;;;;;0.55;0.10;;;;;;;;;;4199678;28;20105;-35
2021/12/17 01:36:10;;;;;;;;;;;;;;;;;;4199844;28;20048;-35
2021/12/17 01:42:43;;;;;;;0.10;0.10;;;;;;;;;;4199045;28;20056;-34
2021/12/17 01:44:44;;;;;;;0.10;0.05;;;;;;;;;;4199412;28;20052;-34
2021/12/17 01:46:49;;;;;;;0.20;0.10;;;;;;;;;;4214652;28;20047;-35
2021/12/17 01:49:06;;;;;;;0.28;0.10;;;;;;;;;;4197941;28;20040;-35
2021/12/17 02:00:32;;;;;;;0.25;0.00;;;;;;;;;;4214714;28;20105;-35
2021/12/17 02:02:42;;;;;;;0.20;0.10;;;;;;;;;;4197544;28;20041;-35
2021/12/17 02:04:43;;;;;;;;;;;;;;;;;;4199349;28;20055;-35
2021/12/17 02:06:45;;;;;;;0.10;0.10;;;;;;;;;;4198324;28;20409;-34
2021/12/17 02:08:47;;;;;;;0.10;0.10;;;;;;;;;;4197931;28;20044;-35
2021/12/17 02:11:31;;;;;;;0.10;0.08;;;;;;;;;;4180876;28;20057;-34
2021/12/17 02:20:22;;;;;;;0.40;0.10;;;;;;;;;;4214376;28;20125;-35
2021/12/17 02:31:27;;;;;;;0.00;0.00;;;;;;;;;;4213919;28;20345;-34
2021/12/17 02:33:28;;;;;;;0.52;0.03;;;;;;;;;;4180501;28;20045;-34
2021/12/17 02:35:39;;;;;;;0.50;0.20;;;;;;;;;;4197359;28;20045;-34
2021/12/17 02:37:44;;;;;;;0.05;0.05;;;;;;;;;;4196771;28;20045;-34
2021/12/17 02:42:35;;;;;;;0.20;0.10;;;;;;;;;;4213422;28;20540;-35
2021/12/17 02:45:37;;;;;;;0.75;0.10;;;;;;;;;;4198097;28;20440;-35
2021/12/17 02:47:07;;;;;;;0.20;0.08;;;;;;;;;;4188206;28;20078;-34
2021/12/17 02:49:09;;;;;;;0.47;0.10;;;;;;;;;;4196773;28;20127;-35
2021/12/17 02:51:11;;;;;;;0.50;0.10;;;;;;;;;;4196872;28;20056;-35
2021/12/17 02:53:13;;;;;;;0.47;0.10;;;;;;;;;;4196596;28;20048;-35
2021/12/17 02:55:13;;;;;;;0.28;0.10;;;;;;;;;;4198056;28;20481;-35
2021/12/17 02:57:14;;;;;;;0.17;0.10;;;;;;;;;;4196752;28;20135;-35
2021/12/17 02:59:16;;;;;;;0.32;0.20;;;;;;;;;;4197792;28;20052;-35
2021/12/17 03:01:17;;;;;;;0.17;0.10;;;;;;;;;;4197894;28;20439;-36
2021/12/17 03:03:20;;;;;;;0.05;0.05;;;;;;;;;;4196569;28;20040;-35
2021/12/17 03:05:23;;;;;;;0.25;0.10;;;;;;;;;;4197923;28;20052;-36
2021/12/17 03:07:24;;;;;;;0.15;0.10;;;;;;;;;;4197478;28;20110;-35
2021/12/17 03:11:44;;;;;;;0.08;0.00;;;;;;;;;;4197659;28;20052;-35
2021/12/17 03:13:47;;;;;;;0.32;0.10;;;;;;;;;;4196394;28;20567;-35
2021/12/17 03:25:03;;;;;;;;;;;;;;;;;;4196920;28;20052;-35
2021/12/17 03:27:05;;;;;;;0.45;0.00;;;;;;;;;;4196287;28;20425;-35
2021/12/17 03:29:07;;;;;;;0.10;0.00;;;;;;;;;;4197769;28;20098;-34
2021/12/17 03:31:09;;;;;;;0.20;0.10;;;;;;;;;;4196392;28;20474;-34
2021/12/17 03:33:12;;;;;;;0.10;0.10;;;;;;;;;;4196334;28;20048;-34
2021/12/17 03:35:13;;;;;;;0.40;0.10;;;;;;;;;;4197428;28;20059;-34
2021/12/17 03:37:14;;;;;;;0.10;0.10;;;;;;;;;;4197240;28;20048;-33
2021/12/17 03:39:24;;;;;;;0.22;0.17;;;;;;;;;;4196589;28;20052;-34
2021/12/17 03:41:35;;;;;;;1.00;0.20;;;;;;;;;;4197351;28;20045;-35
2021/12/17 03:43:38;;;;;;;0.10;0.10;;;;;;;;;;4196235;28;20471;-34
2021/12/17 03:45:42;;;;;;;0.25;0.10;;;;;;;;;;4196163;28;20516;-35
2021/12/17 03:47:48;;;;;;;0.15;0.10;;;;;;;;;;4196130;28;20063;-34
2021/12/17 03:49:58;;;;;;;0.28;0.13;;;;;;;;;;4196406;28;20094;-35
2021/12/17 03:52:05;;;;;;;0.15;0.10;;;;;;;;;;4195795;28;20126;-35
2021/12/17 03:54:10;;;;;;;0.50;0.22;;;;;;;;;;4179700;28;20056;-34
2021/12/17 03:56:12;;;;;;;0.20;0.10;;;;;;;;;;4179527;28;20086;-35
2021/12/17 03:58:13;;;;;;;0.13;0.10;;;;;;;;;;4195843;28;20041;-34
2021/12/17 04:00:18;;;;;;;0.43;0.20;;;;;;;;;;4196091;28;20516;-34
2021/12/17 04:02:19;;;;;;;0.10;0.10;;;;;;;;;;4197133;28;20053;-35
2021/12/17 04:04:20;;;;;;;0.65;0.10;;;;;;;;;;4196369;28;20044;-35
2021/12/17 04:06:28;;;;;;;0.22;0.10;;;;;;;;;;4196135;28;20474;-35
2021/12/17 04:08:37;;;;;;;0.35;0.10;;;;;;;;;;4197086;28;20071;-34
2021/12/17 04:11:05;;;;;;;0.43;0.10;;;;;;;;;;4195906;28;20511;-35
2021/12/17 04:15:35;;;;;;;0.38;0.10;;;;;;;;;;4196144;28;20554;-34
2021/12/17 04:17:53;;;;;;;0.00;0.00;;;;;;;;;;4195927;28;20048;-34
2021/12/17 04:19:54;;;;;;;0.15;0.03;;;;;;;;;;4196789;28;20126;-34
2021/12/17 04:21:55;;;;;;;1.02;0.20;;;;;;;;;;4199870;28;20439;-34
2021/12/17 04:23:57;;;;;;;0.13;0.10;;;;;;;;;;4200416;28;20102;-34
2021/12/17 04:25:58;;;;;;;0.98;0.10;;;;;;;;;;4199069;28;20048;-34
2021/12/17 04:28:00;;;;;;;0.10;0.05;;;;;;;;;;4198956;28;20459;-35
2021/12/17 04:30:03;;;;;;;0.10;0.10;;;;;;;;;;4199056;28;20574;-35
2021/12/17 04:32:05;;;;;;;0.03;0.03;;;;;;;;;;4199264;28;20061;-34
2021/12/17 04:34:11;;;;;;;0.00;0.00;;;;;;;;;;4199005;28;20048;-34
2021/12/17 04:36:18;;;;;;;0.20;0.00;;;;;;;;;;4199081;28;20102;-35
2021/12/17 04:38:21;;;;;;;0.00;0.00;;;;;;;;;;4199839;28;20135;-34
2021/12/17 04:40:24;;;;;;;0.10;0.10;;;;;;;;;;4198906;28;20052;-36
2021/12/17 04:42:52;;;;;;;0.20;0.10;;;;;;;;;;4199030;28;20048;-35
2021/12/17 04:44:56;;;;;;;0.45;0.15;;;;;;;;;;4198885;28;20106;-34
2021/12/17 04:57:18;;;;;;;0.40;0.10;;;;;;;;;;4199876;28;20044;-35
2021/12/17 04:58:53;;;;;;;0.68;0.17;;;;;;;;;;4199016;28;20122;-34
2021/12/17 05:00:55;;;;;;;0.30;0.15;;;;;;;;;;4198806;28;20110;-34
2021/12/17 05:02:58;;;;;;;0.10;0.10;;;;;;;;;;4198563;28;20082;-34
2021/12/17 05:05:05;;;;;;;0.10;0.00;;;;;;;;;;4198546;28;20125;-35
2021/12/17 05:07:08;;;;;;;0.10;0.10;;;;;;;;;;4198140;28;20052;-34
2021/12/17 05:09:23;;;;;;;0.10;0.10;;;;;;;;;;4198476;28;20094;-35
2021/12/17 05:11:48;;;;;;;0.63;0.00;;;;;;;;;;4198213;28;20396;-34
2021/12/17 05:18:31;;;;;;;0.50;0.10;;;;;;;;;;4198320;28;20082;-35
2021/12/17 05:20:47;;;;;;;0.22;0.10;;;;;;;;;;4198618;28;20055;-35
2021/12/17 05:22:52;;;;;;;0.17;0.10;;;;;;;;;;4197698;28;20060;-34
2021/12/17 05:24:53;;;;;;;0.85;0.50;;;;;;;;;;4198475;28;20056;-35
2021/12/17 05:26:55;;;;;;;0.20;0.10;;;;;;;;;;4198053;28;20500;-35
2021/12/17 05:28:58;;;;;;;0.57;0.15;;;;;;;;;;4198233;28;20053;-34
2021/12/17 05:31:21;;;;;;;0.10;0.10;;;;;;;;;;4197353;28;20098;-35
2021/12/17 05:33:25;;;;;;;0.28;0.10;;;;;;;;;;4198000;28;20373;-35
2021/12/17 05:35:27;;;;;;;0.25;0.10;;;;;;;;;;4198061;28;20094;-34
2021/12/17 05:37:30;;;;;;;0.00;0.00;;;;;;;;;;4197702;28;20049;-34
2021/12/17 05:39:31;;;;;;;0.32;0.10;;;;;;;;;;4198011;28;20553;-35
2021/12/17 05:41:36;;;;;;;0.30;0.20;;;;;;;;;;4198008;28;20512;-35
2021/12/17 05:43:56;;;;;;;0.45;0.10;;;;;;;;;;4197868;28;20431;-34
2021/12/17 05:48:00;;;;;;;0.75;0.20;;;;;;;;;;4197757;28;20055;-35
2021/12/17 05:50:01;;;;;;;0.35;0.10;;;;;;;;;;4197743;28;20443;-36
2021/12/17 05:52:02;;;;;;;1.00;0.20;;;;;;;;;;4197413;28;20048;-36
2021/12/17 05:54:04;;;;;;;0.52;0.20;;;;;;;;;;4197643;28;20053;-34
2021/12/17 05:56:05;;;;;;;0.85;0.10;;;;;;;;;;4197981;28;20503;-35
2021/12/17 05:58:19;;;;;;;0.17;0.10;;;;;;;;;;4197547;28;20057;-35
2021/12/17 06:00:21;;;;;;;0.20;0.10;;;;;;;;;;4197600;28;20049;-35
2021/12/17 06:02:22;;;;;;;0.75;0.10;;;;;;;;;;4198720;28;20439;-34
2021/12/17 06:04:27;;;;;;;0.20;0.20;;;;;;;;;;4197841;28;20040;-35
2021/12/17 06:06:35;;;;;;;0.32;0.13;;;;;;;;;;4197738;28;20543;-35
2021/12/17 06:08:38;;;;;;;1.40;0.10;;;;;;;;;;4197325;28;20462;-36
2021/12/17 06:10:39;;;;;;;0.20;0.10;;;;;;;;;;4197735;28;20074;-35
2021/12/17 06:12:41;;;;;;;0.20;0.00;;;;;;;;;;4197283;28;20573;-34
2021/12/17 06:14:43;;;;;;;0.10;0.10;;;;;;;;;;4197391;28;20101;-35
2021/12/17 06:16:45;;;;;;;0.40;0.10;;;;;;;;;;4197307;28;20091;-34
2021/12/17 06:18:51;;;;;;;1.00;0.25;;;;;;;;;;4197515;28;20056;-35
2021/12/17 06:20:52;;;;;;;0.22;0.20;;;;;;;;;;4197377;28;20083;-34
2021/12/17 06:22:53;;;;;;;0.10;0.00;;;;;;;;;;4196491;28;20101;-34
2021/12/17 06:24:54;;;;;;;0.40;0.20;;;;;;;;;;4197079;28;20121;-34
2021/12/17 06:26:55;;;;;;;0.38;0.10;;;;;;;;;;4197020;28;20551;-35
2021/12/17 06:28:57;;;;;;;0.73;0.22;;;;;;;;;;4197165;28;20052;-35
2021/12/17 06:30:58;;;;;;;0.30;0.20;;;;;;;;;;4196952;28;20056;-34
2021/12/17 06:33:04;;;;;;;0.50;0.20;;;;;;;;;;4196873;28;20098;-35
2021/12/17 06:35:08;;;;;;;1.17;0.10;;;;;;;;;;4196948;28;20048;-35
2021/12/17 06:37:09;;;;;;;0.88;0.10;;;;;;;;;;4196343;28;20128;-35
2021/12/17 06:39:11;;;;;;;0.22;0.10;;;;;;;;;;4196842;28;20048;-36
2021/12/17 06:41:13;;;;;;;0.30;0.10;;;;;;;;;;4197222;28;20060;-35
2021/12/17 06:43:16;;;;;;;0.77;0.20;;;;;;;;;;4196505;28;20102;-35
2021/12/17 06:45:24;;;;;;;0.20;0.17;;;;;;;;;;4196952;28;20044;-35
2021/12/17 06:47:29;;;;;;;0.40;0.20;;;;;;;;;;4196699;28;20377;-36
2021/12/17 07:00:14;;;;;;;0.10;0.10;;;;;;;;;;4182008;28;20539;-35
2021/12/17 07:08:51;;;;;;;0.80;0.20;;;;;;;;;;4189358;28;20082;-34
2021/12/17 07:17:13;;;;;;;0.63;0.20;;;;;;;;;;4197292;28;20109;-34
2021/12/17 07:20:09;;;;;;;1.15;0.57;;;;;;;;;;4198976;28;20078;-34
2021/12/17 07:28:11;;;;;;;0.20;0.20;;;;;;;;;;4206813;28;20056;-35
2021/12/17 07:33:06;;;;;;;1.20;0.30;;;;;;;;;;4153985;28;20102;-34
2021/12/17 07:39:26;;;;;;;0.38;0.20;;;;;;;;;;4195496;28;20068;-36
2021/12/17 07:41:35;;;;;;;0.93;0.30;;;;;;;;;;4191578;28;20456;-36
2021/12/17 07:43:57;;;;;;;0.30;0.22;;;;;;;;;;4191803;28;20047;-36
2021/12/17 07:45:58;;;;;;;1.85;0.20;;;;;;;;;;4198480;28;20537;-36
2021/12/17 07:48:01;;;;;;;1.75;0.30;;;;;;;;;;4207639;28;20454;-35
2021/12/17 07:50:05;;;;;;;0.93;0.30;;;;;;;;;;4190283;28;20048;-36
2021/12/17 07:52:07;;;;;;;3.13;0.20;;;;;;;;;;4184778;28;20049;-36
2021/12/17 07:54:08;;;;;;;1.40;0.30;;;;;;;;;;4219223;28;20048;-35
2021/12/17 07:56:11;;;;;;;0.60;0.20;;;;;;;;;;4195157;28;20428;-37
2021/12/17 07:58:13;;;;;;;0.65;0.20;;;;;;;;;;4191536;28;20393;-35
2021/12/17 08:00:15;;;;;;;0.95;0.32;;;;;;;;;;4187018;28;20056;-35
2021/12/17 08:02:19;;;;;;;0.77;0.30;;;;;;;;;;4195677;28;20082;-35
2021/12/17 08:04:27;;;;;;;1.58;0.20;;;;;;;;;;4192775;28;20049;-35
2021/12/17 08:06:37;;;;;;;1.30;0.20;;;;;;;;;;4196648;28;20133;-35
2021/12/17 08:08:54;;;;;;;1.88;0.40;;;;;;;;;;4190932;28;20463;-36
2021/12/17 08:11:00;;;;;;;1.95;0.30;;;;;;;;;;4189478;28;20048;-36
2021/12/17 08:13:01;;;;;;;0.77;0.20;;;;;;;;;;4197601;28;20492;-35
2021/12/17 08:15:05;;;;;;;0.98;0.22;;;;;;;;;;4201344;28;20377;-35
2021/12/17 08:17:41;;;;;;;2.08;0.45;;;;;;;;;;4202427;28;20462;-35
2021/12/17 08:24:46;;;;;;;0.70;0.20;;;;;;;;;;4192412;28;20048;-35
2021/12/17 08:29:12;;;;;;;0.90;0.40;;;;;;;;;;4218924;28;20461;-36
2021/12/17 08:31:13;;;;;;;0.70;0.30;;;;;;;;;;4192753;28;20571;-36
2021/12/17 08:33:19;;;;;;;0.88;0.30;;;;;;;;;;4189980;28;20126;-35
2021/12/17 08:35:20;;;;;;;2.33;0.40;;;;;;;;;;4196276;28;20105;-36
2021/12/17 08:37:23;;;;;;;1.10;0.28;;;;;;;;;;4200669;28;20117;-36
2021/12/17 08:39:29;;;;;;;2.83;0.60;;;;;;;;;;4195184;28;20154;-35
2021/12/17 08:41:30;;;;;;;2.35;0.32;;;;;;;;;;4192891;28;20117;-35
2021/12/17 08:43:33;;;;;;;2.67;0.45;;;;;;;;;;4194463;28;20101;-35
2021/12/17 08:45:35;;;;;;;1.45;0.30;;;;;;;;;;4198288;28;20044;-34
2021/12/17 08:48:15;;;;;;;1.77;0.38;;;;;;;;;;4143376;28;20513;-35
2021/12/17 08:50:22;;;;;;;0.88;0.40;;;;;;;;;;4127893;28;20443;-35
2021/12/17 08:52:23;;;;;;;1.40;0.40;;;;;;;;;;4140633;28;20127;-34
2021/12/17 08:54:26;;;;;;;2.65;0.50;;;;;;;;;;4193235;28;20056;-34
2021/12/17 08:56:28;;;;;;;1.58;0.45;;;;;;;;;;4198085;28;20068;-34
2021/12/17 08:58:29;;;;;;;1.45;0.30;;;;;;;;;;4199459;28;20090;-34
2021/12/17 09:00:31;;;;;;;2.80;0.22;;;;;;;;;;4193869;28;20056;-35
2021/12/17 09:02:37;;;;;;;2.97;0.63;;;;;;;;;;4189530;28;20041;-34
2021/12/17 09:05:00;;;;;;;1.42;0.60;;;;;;;;;;4197580;28;20511;-36
2021/12/17 09:07:03;;;;;;;1.17;0.40;;;;;;;;;;4196876;28;20549;-35
2021/12/17 09:09:05;;;;;;;1.58;0.38;;;;;;;;;;4198508;28;20153;-34
2021/12/17 09:11:08;;;;;;;2.15;0.30;;;;;;;;;;4198786;28;20048;-33
2021/12/17 09:13:39;;;;;;;1.63;0.45;;;;;;;;;;4190535;28;20083;-34
2021/12/17 09:15:42;;;;;;;2.60;0.80;;;;;;;;;;4192788;28;20217;-34
2021/12/17 09:17:47;;;;;;;3.72;0.65;;;;;;;;;;4180970;28;20049;-34
2021/12/17 09:19:51;;;;;;;1.83;0.40;;;;;;;;;;4213072;28;20063;-33
2021/12/17 09:21:55;;;;;;;2.42;0.70;;;;;;;;;;4196914;28;20480;-34
2021/12/17 09:24:02;;;;;;;1.75;0.73;;;;;;;;;;4195187;28;20105;-34
2021/12/17 09:26:15;;;;;;;3.67;0.80;;;;;;;;;;4196532;28;20134;-35
2021/12/17 09:28:17;;;;;;;3.72;0.88;;;;;;;;;;4211899;28;20396;-36
2021/12/17 09:30:24;;;;;;;2.08;0.50;;;;;;;;;;4199807;28;20102;-35
2021/12/17 09:32:25;;;;;;;3.30;0.40;;;;;;;;;;4202643;28;20181;-36
2021/12/17 09:34:26;;;;;;;1.23;0.40;;;;;;;;;;4194784;28;20078;-34
2021/12/17 09:36:27;;;;;;;8.57;1.15;;;;;;;;;;4202945;28;20079;-36
2021/12/17 09:38:28;;;;;;;2.00;0.47;;;;;;;;;;4207182;28;20048;-33
2021/12/17 09:40:29;;;;;;;4.15;0.90;;;;;;;;;;4198821;28;20044;-34
2021/12/17 09:42:30;;;;;;;2.58;0.90;;;;;;;;;;4194215;28;20036;-34
2021/12/17 09:44:31;;;;;;;4.50;0.73;;;;;;;;;;4194547;28;20403;-34
2021/12/17 09:46:33;;;;;;;2.15;0.50;;;;;;;;;;4198162;28;20045;-34
2021/12/17 09:48:34;;;;;;;2.05;0.60;;;;;;;;;;4207429;28;20053;-34
2021/12/17 09:50:35;;;;;;;3.58;1.13;;;;;;;;;;4198433;28;20075;-34
2021/12/17 09:52:37;;;;;;;1.75;0.77;;;;;;;;;;4201036;28;20105;-35
2021/12/17 09:54:38;;;;;;;3.30;0.70;;;;;;;;;;4201258;28;20487;-34
2021/12/17 09:56:39;;;;;;;2.17;0.55;;;;;;;;;;4197433;28;20058;-35
2021/12/17 09:58:40;;;;;;;2.85;0.63;;;;;;;;;;4201973;28;20144;-36
2021/12/17 10:00:41;;;;;;;1.40;0.40;;;;;;;;;;4197154;28;20044;-35
2021/12/17 10:02:46;;;;;;;2.80;0.50;;;;;;;;;;4180969;28;20041;-35
2021/12/17 10:04:47;;;;;;;1.83;0.50;;;;;;;;;;4204675;28;20093;-35
2021/12/17 10:06:49;;;;;;;1.20;0.40;;;;;;;;;;4197986;28;20097;-36
2021/12/17 10:08:50;;;;;;;1.77;0.47;;;;;;;;;;4195913;28;20142;-35
2021/12/17 10:11:01;;;;;;;2.40;0.70;;;;;;;;;;4196882;28;20056;-35
2021/12/17 10:13:13;;;;;;;3.20;0.75;;;;;;;;;;4190126;28;20118;-35
2021/12/17 10:15:21;;;;;;;2.78;0.52;;;;;;;;;;4187245;28;20107;-34
2021/12/17 10:17:22;;;;;;;2.95;0.65;;;;;;;;;;4194064;28;20097;-34
2021/12/17 10:19:42;;;;;;;1.90;0.50;;;;;;;;;;4190386;28;20101;-36
2021/12/17 10:21:46;;;;;;;1.65;0.60;;;;;;;;;;4198178;28;20121;-36
2021/12/17 10:23:47;;;;;;;2.60;0.80;;;;;;;;;;4198840;28;20063;-34
2021/12/17 10:25:49;;;;;;;2.70;0.75;;;;;;;;;;4201905;28;20056;-34
2021/12/17 10:27:54;;;;;;;2.88;0.55;;;;;;;;;;4192846;28;20048;-34
2021/12/17 10:29:55;;;;;;;2.70;0.50;;;;;;;;;;4194058;28;20219;-34
2021/12/17 10:31:58;;;;;;;3.13;0.70;;;;;;;;;;4195076;28;20408;-34
2021/12/17 10:34:01;;;;;;;2.92;0.47;;;;;;;;;;4196866;28;20064;-34
2021/12/17 10:36:03;;;;;;;2.58;0.50;;;;;;;;;;4193096;28;20109;-35
2021/12/17 10:38:06;;;;;;;2.55;0.40;;;;;;;;;;4194362;28;20056;-33
2021/12/17 10:40:13;;;;;;;2.78;0.32;;;;;;;;;;4197029;28;20114;-35
2021/12/17 10:42:16;;;;;;;2.05;0.70;;;;;;;;;;4198746;28;20048;-35
2021/12/17 10:44:20;;;;;;;1.70;0.43;;;;;;;;;;4195881;28;20044;-33
2021/12/17 10:46:25;;;;;;;3.38;0.57;;;;;;;;;;4199151;28;20040;-35
2021/12/17 10:48:31;;;;;;;1.38;0.50;;;;;;;;;;4184332;28;20056;-33
2021/12/17 10:50:32;;;;;;;1.88;0.50;;;;;;;;;;4206536;28;20102;-35
2021/12/17 10:52:41;;;;;;;1.40;0.65;;;;;;;;;;4201216;28;20056;-33
2021/12/17 10:54:42;;;;;;;0.70;0.33;;;;;;;;;;4199479;28;20105;-36
2021/12/17 10:56:43;;;;;;;2.10;0.47;;;;;;;;;;4198478;28;20542;-34
2021/12/17 10:58:58;;;;;;;1.38;0.57;;;;;;;;;;4205013;28;20133;-33
2021/12/17 11:01:02;;;;;;;3.22;0.60;;;;;;;;;;4200545;28;20121;-36
2021/12/17 11:03:03;;;;;;;0.95;0.40;;;;;;;;;;4193921;28;20052;-34
2021/12/17 11:05:11;;;;;;;1.50;0.50;;;;;;;;;;4198132;28;20079;-34
2021/12/17 11:07:14;;;;;;;2.35;0.60;;;;;;;;;;4201792;28;20101;-33
2021/12/17 11:09:34;;;;;;;2.58;0.30;;;;;;;;;;4200168;28;20048;-35
2021/12/17 11:11:41;;;;;;;1.92;0.60;;;;;;;;;;4184327;28;20052;-34
2021/12/17 11:13:52;;;;;;;1.75;0.50;;;;;;;;;;4196418;28;20151;-34
2021/12/17 11:15:54;;;;;;;1.65;0.30;;;;;;;;;;4202237;28;20088;-37
2021/12/17 11:17:56;;;;;;;2.95;0.57;;;;;;;;;;4204668;28;20048;-34
2021/12/17 11:19:58;;;;;;;2.53;0.63;;;;;;;;;;4197444;28;20389;-33
2021/12/17 11:21:59;;;;;;;0.80;0.43;;;;;;;;;;4197127;28;20524;-36
2021/12/17 11:24:00;;;;;;;1.75;0.65;;;;;;;;;;4202217;28;20048;-36
2021/12/17 11:26:02;;;;;;;0.98;0.43;;;;;;;;;;4197143;28;20044;-36
2021/12/17 11:28:04;;;;;;;2.45;0.30;;;;;;;;;;4204124;28;20094;-35
2021/12/17 11:30:10;;;;;;;2.72;0.63;;;;;;;;;;4196229;28;20052;-33
2021/12/17 11:32:12;;;;;;;1.40;0.50;;;;;;;;;;4194811;28;20464;-33
2021/12/17 11:34:13;;;;;;;2.13;0.38;;;;;;;;;;4206663;28;20040;-34
2021/12/17 11:36:16;;;;;;;1.70;0.47;;;;;;;;;;4207025;28;20071;-34
2021/12/17 11:38:16;;;;;;;1.30;0.40;;;;;;;;;;4191561;28;20048;-34
2021/12/17 11:40:17;;;;;;;0.47;0.22;;;;;;;;;;4194585;28;20045;-34
2021/12/17 11:42:29;;;;;;;0.75;0.40;;;;;;;;;;4204975;28;20126;-34
2021/12/17 11:44:40;;;;;;;1.17;0.50;;;;;;;;;;4201869;28;20417;-34
2021/12/17 11:46:40;;;;;;;1.20;0.50;;;;;;;;;;4201751;28;20051;-34
2021/12/17 11:49:07;;;;;;;0.95;0.45;;;;;;;;;;4192308;28;20423;-35
2021/12/17 11:51:11;;;;;;;0.75;0.40;;;;;;;;;;4189481;28;20546;-35
2021/12/17 11:53:24;;;;;;;1.10;0.40;;;;;;;;;;4197539;28;20438;-34
2021/12/17 11:55:35;;;;;;;0.98;0.38;;;;;;;;;;4199464;28;20044;-35
2021/12/17 11:57:42;;;;;;;1.13;0.40;;;;;;;;;;4196605;28;20070;-35
2021/12/17 11:59:44;;;;;;;1.35;0.52;;;;;;;;;;4198894;28;20049;-35
2021/12/17 12:01:52;;;;;;;0.95;0.43;;;;;;;;;;4196579;28;20499;-35
2021/12/17 12:04:13;;;;;;;0.95;0.50;;;;;;;;;;4202339;28;20120;-35
2021/12/17 12:06:33;;;;;;;0.85;0.40;;;;;;;;;;4203895;28;20447;-35
2021/12/17 12:08:47;;;;;;;1.05;0.40;;;;;;;;;;4198755;28;20113;-34
2021/12/17 12:11:07;;;;;;;1.77;0.77;;;;;;;;;;4192150;28;20522;-34
2021/12/17 12:13:08;;;;;;;1.45;0.40;;;;;;;;;;4203410;28;20047;-35
2021/12/17 12:15:24;;;;;;;1.20;0.50;;;;;;;;;;4203466;28;20157;-35
2021/12/17 12:17:43;;;;;;;0.75;0.40;;;;;;;;;;4197175;28;20049;-35
2021/12/17 12:19:49;;;;;;;1.05;0.40;;;;;;;;;;4195882;28;20060;-35
2021/12/17 12:22:03;;;;;;;0.80;0.40;;;;;;;;;;4198835;28;20506;-34
2021/12/17 12:24:11;;;;;;;0.60;0.30;;;;;;;;;;4193490;28;20349;-35
2021/12/17 12:26:14;;;;;;;0.38;0.20;;;;;;;;;;4197006;28;20071;-34
2021/12/17 12:28:16;;;;;;;2.38;0.30;;;;;;;;;;4192768;28;20496;-34
2021/12/17 12:30:34;;;;;;;1.15;0.50;;;;;;;;;;4194676;28;20102;-33
2021/12/17 12:32:35;;;;;;;1.77;0.45;;;;;;;;;;4187414;28;20558;-34
2021/12/17 12:34:37;;;;;;;1.50;0.40;;;;;;;;;;4198856;28;20048;-33
2021/12/17 12:36:57;;;;;;;0.70;0.43;;;;;;;;;;4197601;28;20044;-33
2021/12/17 12:39:21;;;;;;;2.20;0.30;;;;;;;;;;4197789;28;20060;-34
2021/12/17 12:41:39;;;;;;;0.80;0.40;;;;;;;;;;4200389;28;20352;-34
2021/12/17 12:43:46;;;;;;;1.23;0.30;;;;;;;;;;4201470;28;20376;-33
2021/12/17 12:45:47;;;;;;;1.25;0.30;;;;;;;;;;4203078;28;20048;-33
2021/12/17 12:47:54;;;;;;;1.05;0.50;;;;;;;;;;4196108;28;20276;-33
2021/12/17 12:50:02;;;;;;;0.28;0.20;;;;;;;;;;4191843;28;20452;-34
2021/12/17 12:52:18;;;;;;;0.47;0.30;;;;;;;;;;4194853;28;20044;-33
2021/12/17 12:54:22;;;;;;;0.75;0.40;;;;;;;;;;4194500;28;20049;-34
2021/12/17 12:56:23;;;;;;;1.30;0.25;;;;;;;;;;4202898;28;20066;-34
2021/12/17 12:58:27;;;;;;;0.47;0.20;;;;;;;;;;4191797;28;20053;-33
2021/12/17 13:00:47;;;;;;;2.05;0.40;;;;;;;;;;4213612;28;20047;-34
2021/12/17 13:02:48;;;;;;;;;;;;;;;;;;4195392;28;20177;-33
2021/12/17 13:04:51;;;;;;;0.95;0.30;;;;;;;;;;4199214;28;19978;-34
2021/12/17 13:06:53;;;;;;;0.93;0.30;;;;;;;;;;4203433;28;20357;-34
2021/12/17 13:08:55;;;;;;;0.85;0.38;;;;;;;;;;4186452;28;20057;-34
2021/12/17 13:10:59;;;;;;;0.85;0.40;;;;;;;;;;4186862;28;20400;-33
2021/12/17 13:13:03;;;;;;;0.75;0.40;;;;;;;;;;4193935;28;20110;-34
2021/12/17 13:20:53;;;;;;;0.70;0.30;;;;;;;;;;4142909;28;20049;-33
2021/12/17 13:22:58;;;;;;;1.48;0.40;;;;;;;;;;4169980;28;20047;-33
2021/12/17 13:24:59;;;;;;;0.75;0.20;;;;;;;;;;4214783;28;20419;-34
2021/12/17 13:27:11;;;;;;;0.88;0.20;;;;;;;;;;4201960;28;20147;-34
2021/12/17 13:29:14;;;;;;;1.92;0.35;;;;;;;;;;4193485;28;20456;-34
2021/12/17 13:31:36;;;;;;;0.80;0.30;;;;;;;;;;4186233;28;20049;-34
2021/12/17 13:33:38;;;;;;;0.50;0.40;;;;;;;;;;4192229;28;20051;-33
2021/12/17 13:35:39;;;;;;;0.38;0.20;;;;;;;;;;4185760;28;20099;-33
2021/12/17 13:37:40;;;;;;;0.65;0.30;;;;;;;;;;4200765;28;20492;-33
2021/12/17 13:39:43;;;;;;;0.65;0.20;;;;;;;;;;4209690;28;20049;-33
2021/12/17 13:41:45;;;;;;;0.38;0.17;;;;;;;;;;4183088;28;20448;-33
2021/12/17 13:43:47;;;;;;;3.33;0.40;;;;;;;;;;4196881;28;20048;-33
2021/12/17 13:45:48;;;;;;;0.80;0.35;;;;;;;;;;4201257;28;20094;-32
2021/12/17 13:47:51;;;;;;;2.83;0.35;;;;;;;;;;4212872;28;20051;-34
2021/12/17 13:49:56;;;;;;;1.25;0.77;;;;;;;;;;4197906;28;20063;-35
2021/12/17 13:51:57;;;;;;;0.55;0.22;;;;;;;;;;4188522;28;20493;-33
2021/12/17 13:53:59;;;;;;;0.50;0.20;;;;;;;;;;4178743;28;20052;-34
2021/12/17 13:56:00;;;;;;;0.45;0.25;;;;;;;;;;4190934;28;20049;-33
2021/12/17 13:58:05;;;;;;;0.30;0.20;;;;;;;;;;4196535;28;20452;-33
2021/12/17 14:00:06;;;;;;;0.65;0.30;;;;;;;;;;4196305;28;20505;-34
2021/12/17 14:02:12;;;;;;;1.27;0.45;;;;;;;;;;4196627;28;20048;-33
2021/12/17 14:04:14;;;;;;;0.95;0.20;;;;;;;;;;4196621;28;20078;-32
2021/12/17 14:06:23;;;;;;;0.38;0.20;;;;;;;;;;4193539;28;20593;-33
2021/12/17 14:08:24;;;;;;;1.52;0.40;;;;;;;;;;4195516;28;20052;-35
2021/12/17 14:10:30;;;;;;;2.13;0.43;;;;;;;;;;4195909;28;20056;-33
2021/12/17 14:12:33;;;;;;;2.13;0.40;;;;;;;;;;4194546;28;20044;-42
2021/12/17 14:14:35;;;;;;;3.03;0.60;;;;;;;;;;4195608;28;20484;-41
2021/12/17 14:16:39;;;;;;;0.85;0.30;;;;;;;;;;4189869;28;20402;-42
2021/12/17 14:18:41;;;;;;;1.15;0.30;;;;;;;;;;4190345;28;20060;-41
2021/12/17 14:20:44;;;;;;;0.70;0.30;;;;;;;;;;4192626;28;20486;-42
2021/12/17 14:22:46;;;;;;;0.57;0.50;;;;;;;;;;4181462;28;20485;-40
2021/12/17 14:24:47;;;;;;;2.13;0.30;;;;;;;;;;4192465;28;20131;-41
2021/12/17 14:26:48;;;;;;;0.57;0.20;;;;;;;;;;4194896;28;20528;-42
2021/12/17 14:28:48;;;;;;;2.40;0.22;;;;;;;;;;4195287;28;20492;-41
2021/12/17 14:30:55;;;;;;;0.85;0.30;;;;;;;;;;4191915;28;20056;-40
2021/12/17 14:32:56;;;;;;;0.40;0.28;;;;;;;;;;4196107;28;20064;-41
2021/12/17 14:34:57;;;;;;;1.55;0.40;;;;;;;;;;4196407;28;20057;-41
2021/12/17 14:37:01;;;;;;;0.73;0.28;;;;;;;;;;4195947;28;20736;-42
2021/12/17 14:39:20;;;;;;;1.17;0.28;;;;;;;;;;4194497;28;20052;-41
2021/12/17 14:41:43;;;;;;;0.32;0.30;;;;;;;;;;4196489;28;20040;-42
2021/12/17 14:44:10;;;;;;;1.38;0.28;;;;;;;;;;4194445;28;20090;-42
2021/12/17 14:48:30;;;;;;;1.02;0.43;;;;;;;;;;4196378;28;20048;-41
2021/12/17 14:57:52;;;;;;;0.90;0.28;;;;;;;;;;4195277;28;20075;-42
2021/12/17 15:02:14;;;;;;;2.63;0.40;;;;;;;;;;4195597;28;20055;-41
2021/12/17 15:04:15;;;;;;;2.75;0.45;;;;;;;;;;4193980;28;20229;-42
2021/12/17 15:06:16;;;;;;;1.20;0.30;;;;;;;;;;4195333;28;20049;-42
2021/12/17 15:08:17;;;;;;;2.53;0.25;;;;;;;;;;4194601;28;20037;-41
2021/12/17 15:10:19;;;;;;;2.72;0.50;;;;;;;;;;4196696;28;20110;-42
2021/12/17 15:14:33;;;;;;;1.38;0.40;;;;;;;;;;4196725;28;20048;-41
2021/12/17 15:16:34;;;;;;;0.93;0.40;;;;;;;;;;4196168;28;20107;-42
2021/12/17 15:18:37;;;;;;;0.70;0.40;;;;;;;;;;4196381;28;20483;-42
2021/12/17 15:20:38;;;;;;;0.68;0.35;;;;;;;;;;4196942;28;20044;-42
2021/12/17 15:22:40;;;;;;;0.32;0.30;;;;;;;;;;4194227;28;20052;-42
2021/12/17 15:24:41;;;;;;;0.98;0.40;;;;;;;;;;4196599;28;20055;-42
2021/12/17 15:26:42;;;;;;;0.70;0.25;;;;;;;;;;4194701;28;20500;-42
2021/12/17 15:28:43;;;;;;;1.98;0.43;;;;;;;;;;4195508;28;20560;-42